sensor_id;sensor_type;location;lat;lon;timestamp;pressure;altitude;pressure_sealevel;temperature;humidity
56912;BME280;42800;53.928;27.662;2023-11-21T00:01:31;98065.38;;;-6.28;100.00
56912;BME280;42800;53.928;27.662;2023-11-21T00:03:58;98075.91;;;-6.13;100.00
56912;BME280;42800;53.928;27.662;2023-11-21T00:06:25;98076.56;;;-6.26;100.00
56912;BME280;42800;53.928;27.662;2023-11-21T00:08:51;98085.72;;;-6.08;100.00
56912;BME280;42800;53.928;27.662;2023-11-21T00:11:18;98083.72;;;-5.98;100.00
56912;BME280;42800;53.928;27.662;2023-11-21T00:13:44;98073.69;;;-5.87;100.00
56912;BME280;42800;53.928;27.662;2023-11-21T00:16:11;98058.22;;;-5.85;100.00
56912;BME280;42800;53.928;27.662;2023-11-21T00:18:37;98065.34;;;-5.99;100.00
56912;BME280;42800;53.928;27.662;2023-11-21T00:21:03;98080.50;;;-5.95;100.00
56912;BME280;42800;53.928;27.662;2023-11-21T00:23:30;98063.69;;;-5.95;100.00
56912;BME280;42800;53.928;27.662;2023-11-21T00:25:56;98065.47;;;-6.09;100.00
56912;BME280;42800;53.928;27.662;2023-11-21T00:28:23;98083.91;;;-6.13;100.00
56912;BME280;42800;53.928;27.662;2023-11-21T00:30:50;98106.38;;;-6.19;100.00
56912;BME280;42800;53.928;27.662;2023-11-21T00:33:16;98105.41;;;-6.04;100.00
56912;BME280;42800;53.928;27.662;2023-11-21T00:35:43;98099.94;;;-6.18;100.00
56912;BME280;42800;53.928;27.662;2023-11-21T00:38:09;98109.31;;;-5.97;100.00
56912;BME280;42800;53.928;27.662;2023-11-21T00:40:36;98111.03;;;-6.06;100.00
56912;BME280;42800;53.928;27.662;2023-11-21T00:43:03;98115.09;;;-6.13;100.00
56912;BME280;42800;53.928;27.662;2023-11-21T00:45:29;98127.84;;;-6.05;100.00
56912;BME280;42800;53.928;27.662;2023-11-21T00:47:55;98120.53;;;-5.95;100.00
56912;BME280;42800;53.928;27.662;2023-11-21T00:50:23;98099.72;;;-5.74;100.00
56912;BME280;42800;53.928;27.662;2023-11-21T00:52:49;98078.78;;;-5.85;100.00
56912;BME280;42800;53.928;27.662;2023-11-21T00:55:17;98081.06;;;-5.98;100.00
56912;BME280;42800;53.928;27.662;2023-11-21T00:57:44;98087.09;;;-5.68;100.00
56912;BME280;42800;53.928;27.662;2023-11-21T01:00:11;98077.47;;;-5.88;100.00
56912;BME280;42800;53.928;27.662;2023-11-21T01:02:40;98066.38;;;-5.95;100.00
56912;BME280;42800;53.928;27.662;2023-11-21T01:05:06;98079.03;;;-5.87;100.00
56912;BME280;42800;53.928;27.662;2023-11-21T01:07:33;98061.22;;;-5.92;100.00
56912;BME280;42800;53.928;27.662;2023-11-21T01:09:59;98066.06;;;-5.94;100.00
56912;BME280;42800;53.928;27.662;2023-11-21T01:12:26;98069.75;;;-5.89;100.00
56912;BME280;42800;53.928;27.662;2023-11-21T01:14:52;98077.38;;;-6.02;100.00
56912;BME280;42800;53.928;27.662;2023-11-21T01:17:19;98087.38;;;-6.12;100.00
56912;BME280;42800;53.928;27.662;2023-11-21T01:19:47;98114.31;;;-6.14;100.00
56912;BME280;42800;53.928;27.662;2023-11-21T01:22:13;98125.53;;;-6.17;100.00
56912;BME280;42800;53.928;27.662;2023-11-21T01:24:41;98125.56;;;-5.93;100.00
56912;BME280;42800;53.928;27.662;2023-11-21T01:27:07;98128.94;;;-6.06;100.00
56912;BME280;42800;53.928;27.662;2023-11-21T01:29:34;98149.94;;;-6.00;100.00
56912;BME280;42800;53.928;27.662;2023-11-21T01:32:02;98145.50;;;-6.09;100.00
56912;BME280;42800;53.928;27.662;2023-11-21T01:34:29;98136.63;;;-6.05;100.00
56912;BME280;42800;53.928;27.662;2023-11-21T01:36:56;98134.28;;;-6.06;100.00
56912;BME280;42800;53.928;27.662;2023-11-21T01:39:22;98141.94;;;-5.76;100.00
56912;BME280;42800;53.928;27.662;2023-11-21T01:41:49;98123.06;;;-5.84;100.00
56912;BME280;42800;53.928;27.662;2023-11-21T01:44:15;98114.53;;;-5.86;100.00
56912;BME280;42800;53.928;27.662;2023-11-21T01:46:42;98114.09;;;-5.94;100.00
56912;BME280;42800;53.928;27.662;2023-11-21T01:49:10;98119.81;;;-5.81;100.00
56912;BME280;42800;53.928;27.662;2023-11-21T01:51:38;98109.13;;;-5.57;100.00
56912;BME280;42800;53.928;27.662;2023-11-21T01:54:06;98094.38;;;-5.50;100.00
56912;BME280;42800;53.928;27.662;2023-11-21T01:56:33;98083.91;;;-5.46;100.00
56912;BME280;42800;53.928;27.662;2023-11-21T01:58:59;98082.81;;;-5.45;100.00
56912;BME280;42800;53.928;27.662;2023-11-21T02:01:25;98077.50;;;-5.45;100.00
56912;BME280;42800;53.928;27.662;2023-11-21T02:03:52;98066.00;;;-5.27;100.00
56912;BME280;42800;53.928;27.662;2023-11-21T02:06:19;98055.47;;;-5.37;100.00
56912;BME280;42800;53.928;27.662;2023-11-21T02:08:45;98047.75;;;-5.38;100.00
56912;BME280;42800;53.928;27.662;2023-11-21T02:11:11;98045.63;;;-5.60;100.00
56912;BME280;42800;53.928;27.662;2023-11-21T02:13:38;98040.47;;;-5.33;100.00
56912;BME280;42800;53.928;27.662;2023-11-21T02:16:08;98050.59;;;-5.30;100.00
56912;BME280;42800;53.928;27.662;2023-11-21T02:18:34;98056.34;;;-5.23;100.00
56912;BME280;42800;53.928;27.662;2023-11-21T02:21:00;98053.31;;;-5.16;100.00
56912;BME280;42800;53.928;27.662;2023-11-21T02:23:29;98053.59;;;-5.17;100.00
56912;BME280;42800;53.928;27.662;2023-11-21T02:25:55;98053.47;;;-5.26;100.00
56912;BME280;42800;53.928;27.662;2023-11-21T02:28:21;98054.13;;;-5.15;100.00
56912;BME280;42800;53.928;27.662;2023-11-21T02:30:51;98057.94;;;-5.22;100.00
56912;BME280;42800;53.928;27.662;2023-11-21T02:33:21;98065.75;;;-5.25;100.00
56912;BME280;42800;53.928;27.662;2023-11-21T02:35:47;98065.38;;;-5.18;100.00
56912;BME280;42800;53.928;27.662;2023-11-21T02:38:14;98072.19;;;-5.26;100.00
56912;BME280;42800;53.928;27.662;2023-11-21T02:40:42;98068.63;;;-5.22;100.00
56912;BME280;42800;53.928;27.662;2023-11-21T02:43:08;98070.78;;;-5.24;100.00
56912;BME280;42800;53.928;27.662;2023-11-21T02:45:35;98074.13;;;-5.32;100.00
56912;BME280;42800;53.928;27.662;2023-11-21T02:48:02;98072.53;;;-5.33;100.00
56912;BME280;42800;53.928;27.662;2023-11-21T02:50:28;98064.41;;;-5.47;100.00
56912;BME280;42800;53.928;27.662;2023-11-21T02:52:55;98073.69;;;-5.39;100.00
56912;BME280;42800;53.928;27.662;2023-11-21T02:55:23;98059.19;;;-5.33;100.00
56912;BME280;42800;53.928;27.662;2023-11-21T02:57:51;98062.63;;;-5.32;100.00
56912;BME280;42800;53.928;27.662;2023-11-21T03:00:17;98069.41;;;-5.40;100.00
56912;BME280;42800;53.928;27.662;2023-11-21T03:02:45;98071.34;;;-5.27;100.00
56912;BME280;42800;53.928;27.662;2023-11-21T03:05:13;98070.28;;;-5.26;100.00
56912;BME280;42800;53.928;27.662;2023-11-21T03:07:39;98063.25;;;-5.59;100.00
56912;BME280;42800;53.928;27.662;2023-11-21T03:10:07;98062.28;;;-5.69;100.00
56912;BME280;42800;53.928;27.662;2023-11-21T03:12:34;98056.25;;;-5.55;100.00
56912;BME280;42800;53.928;27.662;2023-11-21T03:15:01;98049.91;;;-5.59;100.00
56912;BME280;42800;53.928;27.662;2023-11-21T03:17:28;98058.94;;;-5.79;100.00
56912;BME280;42800;53.928;27.662;2023-11-21T03:19:56;98073.63;;;-5.58;100.00
56912;BME280;42800;53.928;27.662;2023-11-21T03:22:23;98078.03;;;-5.91;100.00
56912;BME280;42800;53.928;27.662;2023-11-21T03:24:49;98095.78;;;-5.57;100.00
56912;BME280;42800;53.928;27.662;2023-11-21T03:27:15;98113.00;;;-5.69;100.00
56912;BME280;42800;53.928;27.662;2023-11-21T03:29:41;98127.78;;;-5.76;100.00
56912;BME280;42800;53.928;27.662;2023-11-21T03:32:08;98143.56;;;-5.80;100.00
56912;BME280;42800;53.928;27.662;2023-11-21T03:34:35;98161.50;;;-5.85;100.00
56912;BME280;42800;53.928;27.662;2023-11-21T03:37:01;98184.47;;;-5.60;100.00
56912;BME280;42800;53.928;27.662;2023-11-21T03:39:27;98185.69;;;-5.48;100.00
56912;BME280;42800;53.928;27.662;2023-11-21T03:41:55;98202.72;;;-5.97;100.00
56912;BME280;42800;53.928;27.662;2023-11-21T03:44:21;98263.88;;;-5.71;100.00
56912;BME280;42800;53.928;27.662;2023-11-21T03:46:47;98286.34;;;-5.43;100.00
56912;BME280;42800;53.928;27.662;2023-11-21T03:49:14;98264.19;;;-5.19;100.00
56912;BME280;42800;53.928;27.662;2023-11-21T03:51:40;98218.03;;;-5.25;100.00
56912;BME280;42800;53.928;27.662;2023-11-21T03:54:07;98198.09;;;-5.33;100.00
56912;BME280;42800;53.928;27.662;2023-11-21T03:56:33;98215.41;;;-5.30;100.00
56912;BME280;42800;53.928;27.662;2023-11-21T03:58:59;98218.22;;;-5.70;100.00
56912;BME280;42800;53.928;27.662;2023-11-21T04:01:25;98251.63;;;-5.72;100.00
56912;BME280;42800;53.928;27.662;2023-11-21T04:03:51;98294.41;;;-5.53;100.00
56912;BME280;42800;53.928;27.662;2023-11-21T04:06:18;98294.66;;;-5.21;100.00
56912;BME280;42800;53.928;27.662;2023-11-21T04:08:45;98277.00;;;-5.46;100.00
56912;BME280;42800;53.928;27.662;2023-11-21T04:11:11;98272.50;;;-5.50;100.00
56912;BME280;42800;53.928;27.662;2023-11-21T04:13:37;98284.34;;;-5.56;100.00
56912;BME280;42800;53.928;27.662;2023-11-21T04:16:05;98313.56;;;-5.41;100.00
56912;BME280;42800;53.928;27.662;2023-11-21T04:18:31;98298.66;;;-5.18;100.00
56912;BME280;42800;53.928;27.662;2023-11-21T04:20:57;98273.34;;;-5.26;100.00
56912;BME280;42800;53.928;27.662;2023-11-21T04:23:24;98251.63;;;-5.43;100.00
56912;BME280;42800;53.928;27.662;2023-11-21T04:25:50;98256.22;;;-5.49;100.00
56912;BME280;42800;53.928;27.662;2023-11-21T04:28:17;98283.72;;;-5.48;100.00
56912;BME280;42800;53.928;27.662;2023-11-21T04:30:45;98302.53;;;-5.34;100.00
56912;BME280;42800;53.928;27.662;2023-11-21T04:33:11;98322.41;;;-5.80;100.00
56912;BME280;42800;53.928;27.662;2023-11-21T04:35:37;98354.41;;;-5.75;100.00
56912;BME280;42800;53.928;27.662;2023-11-21T04:38:03;98373.28;;;-5.61;100.00
56912;BME280;42800;53.928;27.662;2023-11-21T04:40:30;98359.91;;;-5.56;100.00
56912;BME280;42800;53.928;27.662;2023-11-21T04:42:57;98378.63;;;-5.61;100.00
56912;BME280;42800;53.928;27.662;2023-11-21T04:45:23;98383.50;;;-5.73;100.00
56912;BME280;42800;53.928;27.662;2023-11-21T04:47:49;98400.75;;;-5.55;100.00
56912;BME280;42800;53.928;27.662;2023-11-21T04:50:16;98383.47;;;-5.63;100.00
56912;BME280;42800;53.928;27.662;2023-11-21T04:52:42;98369.47;;;-5.50;100.00
56912;BME280;42800;53.928;27.662;2023-11-21T04:55:08;98350.31;;;-5.62;100.00
56912;BME280;42800;53.928;27.662;2023-11-21T04:57:36;98372.16;;;-5.55;100.00
56912;BME280;42800;53.928;27.662;2023-11-21T05:00:03;98377.06;;;-5.67;100.00
56912;BME280;42800;53.928;27.662;2023-11-21T05:02:31;98386.47;;;-5.40;100.00
56912;BME280;42800;53.928;27.662;2023-11-21T05:04:59;98385.84;;;-5.67;100.00
56912;BME280;42800;53.928;27.662;2023-11-21T05:07:25;98411.09;;;-5.83;100.00
56912;BME280;42800;53.928;27.662;2023-11-21T05:09:54;98410.56;;;-5.90;100.00
56912;BME280;42800;53.928;27.662;2023-11-21T05:12:21;98452.59;;;-5.61;100.00
56912;BME280;42800;53.928;27.662;2023-11-21T05:14:49;98469.81;;;-5.88;100.00
56912;BME280;42800;53.928;27.662;2023-11-21T05:17:15;98506.75;;;-6.10;100.00
56912;BME280;42800;53.928;27.662;2023-11-21T05:19:42;98559.50;;;-5.82;100.00
56912;BME280;42800;53.928;27.662;2023-11-21T05:22:08;98567.78;;;-5.88;100.00
56912;BME280;42800;53.928;27.662;2023-11-21T05:24:36;98576.59;;;-5.83;100.00
56912;BME280;42800;53.928;27.662;2023-11-21T05:27:04;98600.00;;;-5.59;100.00
56912;BME280;42800;53.928;27.662;2023-11-21T05:29:30;98585.56;;;-5.58;100.00
56912;BME280;42800;53.928;27.662;2023-11-21T05:31:57;98588.75;;;-5.51;100.00
56912;BME280;42800;53.928;27.662;2023-11-21T05:34:24;98578.06;;;-5.51;100.00
56912;BME280;42800;53.928;27.662;2023-11-21T05:36:50;98562.88;;;-5.56;100.00
56912;BME280;42800;53.928;27.662;2023-11-21T05:39:16;98543.97;;;-5.20;100.00
56912;BME280;42800;53.928;27.662;2023-11-21T05:41:44;98477.53;;;-5.37;100.00
56912;BME280;42800;53.928;27.662;2023-11-21T05:44:10;98425.97;;;-5.32;100.00
56912;BME280;42800;53.928;27.662;2023-11-21T05:46:37;98414.09;;;-5.55;100.00
56912;BME280;42800;53.928;27.662;2023-11-21T05:49:04;98428.13;;;-5.79;100.00
56912;BME280;42800;53.928;27.662;2023-11-21T05:51:30;98433.75;;;-5.36;100.00
56912;BME280;42800;53.928;27.662;2023-11-21T05:53:57;98422.75;;;-5.74;100.00
56912;BME280;42800;53.928;27.662;2023-11-21T05:56:23;98421.56;;;-5.52;100.00
56912;BME280;42800;53.928;27.662;2023-11-21T05:58:50;98411.84;;;-5.38;100.00
56912;BME280;42800;53.928;27.662;2023-11-21T06:01:16;98392.34;;;-5.78;100.00
56912;BME280;42800;53.928;27.662;2023-11-21T06:03:42;98374.59;;;-5.58;100.00
56912;BME280;42800;53.928;27.662;2023-11-21T06:06:09;98346.69;;;-5.42;100.00
56912;BME280;42800;53.928;27.662;2023-11-21T06:08:36;98314.81;;;-5.62;100.00
56912;BME280;42800;53.928;27.662;2023-11-21T06:11:02;98304.25;;;-5.78;100.00
56912;BME280;42800;53.928;27.662;2023-11-21T06:13:28;98303.34;;;-5.63;100.00
56912;BME280;42800;53.928;27.662;2023-11-21T06:15:54;98293.47;;;-5.62;100.00
56912;BME280;42800;53.928;27.662;2023-11-21T06:18:21;98295.22;;;-5.82;100.00
56912;BME280;42800;53.928;27.662;2023-11-21T06:20:47;98310.91;;;-5.75;100.00
56912;BME280;42800;53.928;27.662;2023-11-21T06:23:14;98308.56;;;-5.82;100.00
56912;BME280;42800;53.928;27.662;2023-11-21T06:25:41;98341.75;;;-5.59;100.00
56912;BME280;42800;53.928;27.662;2023-11-21T06:28:08;98317.63;;;-5.49;100.00
56912;BME280;42800;53.928;27.662;2023-11-21T06:30:34;98280.81;;;-5.52;100.00
56912;BME280;42800;53.928;27.662;2023-11-21T06:33:00;98280.09;;;-5.62;100.00
56912;BME280;42800;53.928;27.662;2023-11-21T06:35:27;98273.69;;;-5.61;100.00
56912;BME280;42800;53.928;27.662;2023-11-21T06:37:55;98281.31;;;-5.79;100.00
56912;BME280;42800;53.928;27.662;2023-11-21T06:40:23;98295.72;;;-5.80;100.00
56912;BME280;42800;53.928;27.662;2023-11-21T06:42:50;98316.50;;;-5.72;100.00
56912;BME280;42800;53.928;27.662;2023-11-21T06:45:17;98300.06;;;-5.55;100.00
56912;BME280;42800;53.928;27.662;2023-11-21T06:47:43;98289.19;;;-5.63;100.00
56912;BME280;42800;53.928;27.662;2023-11-21T06:50:10;98278.47;;;-5.58;100.00
56912;BME280;42800;53.928;27.662;2023-11-21T06:52:36;98271.72;;;-5.27;100.00
56912;BME280;42800;53.928;27.662;2023-11-21T06:55:03;98271.69;;;-5.22;100.00
56912;BME280;42800;53.928;27.662;2023-11-21T06:57:31;98262.03;;;-5.17;100.00
56912;BME280;42800;53.928;27.662;2023-11-21T06:59:57;98237.59;;;-5.30;100.00
56912;BME280;42800;53.928;27.662;2023-11-21T07:02:24;98235.59;;;-5.19;100.00
56912;BME280;42800;53.928;27.662;2023-11-21T07:04:50;98237.59;;;-5.06;100.00
56912;BME280;42800;53.928;27.662;2023-11-21T07:07:16;98236.53;;;-5.34;100.00
56912;BME280;42800;53.928;27.662;2023-11-21T07:09:42;98238.59;;;-5.02;100.00
56912;BME280;42800;53.928;27.662;2023-11-21T07:12:09;98236.53;;;-5.10;100.00
56912;BME280;42800;53.928;27.662;2023-11-21T07:14:37;98221.22;;;-5.23;100.00
56912;BME280;42800;53.928;27.662;2023-11-21T07:17:05;98218.13;;;-5.11;100.00
56912;BME280;42800;53.928;27.662;2023-11-21T07:19:32;98231.19;;;-4.86;100.00
56912;BME280;42800;53.928;27.662;2023-11-21T07:21:58;98220.66;;;-4.58;100.00
56912;BME280;42800;53.928;27.662;2023-11-21T07:24:24;98223.19;;;-4.48;100.00
56912;BME280;42800;53.928;27.662;2023-11-21T07:26:51;98234.56;;;-4.56;100.00
56912;BME280;42800;53.928;27.662;2023-11-21T07:29:23;98243.59;;;-4.52;100.00
56912;BME280;42800;53.928;27.662;2023-11-21T07:31:51;98235.06;;;-4.35;100.00
56912;BME280;42800;53.928;27.662;2023-11-21T07:34:18;98259.41;;;-4.37;100.00
56912;BME280;42800;53.928;27.662;2023-11-21T07:36:44;98265.44;;;-4.45;100.00
56912;BME280;42800;53.928;27.662;2023-11-21T07:39:10;98267.59;;;-4.28;100.00
56912;BME280;42800;53.928;27.662;2023-11-21T07:41:47;98274.19;;;-4.20;100.00
56912;BME280;42800;53.928;27.662;2023-11-21T07:44:16;98278.94;;;-4.17;100.00
56912;BME280;42800;53.928;27.662;2023-11-21T07:46:43;98294.16;;;-4.13;100.00
56912;BME280;42800;53.928;27.662;2023-11-21T07:49:09;98302.81;;;-4.21;100.00
56912;BME280;42800;53.928;27.662;2023-11-21T07:51:36;98301.00;;;-3.88;100.00
56912;BME280;42800;53.928;27.662;2023-11-21T07:54:02;98316.25;;;-4.45;100.00
56912;BME280;42800;53.928;27.662;2023-11-21T07:56:28;98317.31;;;-4.03;100.00
56912;BME280;42800;53.928;27.662;2023-11-21T07:58:55;98312.13;;;-4.37;100.00
56912;BME280;42800;53.928;27.662;2023-11-21T08:01:21;98315.50;;;-4.08;100.00
56912;BME280;42800;53.928;27.662;2023-11-21T08:03:48;98343.38;;;-4.52;100.00
56912;BME280;42800;53.928;27.662;2023-11-21T08:06:17;98317.31;;;-4.22;100.00
56912;BME280;42800;53.928;27.662;2023-11-21T08:08:43;98337.78;;;-4.12;100.00
56912;BME280;42800;53.928;27.662;2023-11-21T08:11:09;98349.13;;;-4.02;100.00
56912;BME280;42800;53.928;27.662;2023-11-21T08:13:36;98363.75;;;-3.94;100.00
56912;BME280;42800;53.928;27.662;2023-11-21T08:16:04;98375.19;;;-3.88;100.00
56912;BME280;42800;53.928;27.662;2023-11-21T08:18:32;98401.03;;;-3.97;100.00
56912;BME280;42800;53.928;27.662;2023-11-21T08:20:59;98421.38;;;-3.96;100.00
56912;BME280;42800;53.928;27.662;2023-11-21T08:23:26;98439.06;;;-4.00;100.00
56912;BME280;42800;53.928;27.662;2023-11-21T08:25:53;98432.19;;;-4.07;100.00
56912;BME280;42800;53.928;27.662;2023-11-21T08:28:19;98459.34;;;-3.94;100.00
56912;BME280;42800;53.928;27.662;2023-11-21T08:30:48;98487.72;;;-3.93;100.00
56912;BME280;42800;53.928;27.662;2023-11-21T08:33:15;98472.97;;;-4.39;100.00
56912;BME280;42800;53.928;27.662;2023-11-21T08:35:42;98466.09;;;-4.21;100.00
56912;BME280;42800;53.928;27.662;2023-11-21T08:38:08;98483.13;;;-4.12;100.00
56912;BME280;42800;53.928;27.662;2023-11-21T08:40:35;98501.69;;;-3.96;100.00
56912;BME280;42800;53.928;27.662;2023-11-21T08:43:01;98533.69;;;-4.10;100.00
56912;BME280;42800;53.928;27.662;2023-11-21T08:45:30;98512.44;;;-4.26;100.00
56912;BME280;42800;53.928;27.662;2023-11-21T08:47:56;98509.56;;;-4.05;100.00
56912;BME280;42800;53.928;27.662;2023-11-21T08:50:23;98536.72;;;-3.69;100.00
56912;BME280;42800;53.928;27.662;2023-11-21T08:52:49;98561.22;;;-4.34;100.00
56912;BME280;42800;53.928;27.662;2023-11-21T08:55:16;98563.09;;;-4.05;100.00
56912;BME280;42800;53.928;27.662;2023-11-21T08:57:45;98583.06;;;-3.92;100.00
56912;BME280;42800;53.928;27.662;2023-11-21T09:00:12;98603.63;;;-3.88;100.00
56912;BME280;42800;53.928;27.662;2023-11-21T09:02:41;98608.19;;;-3.88;100.00
56912;BME280;42800;53.928;27.662;2023-11-21T09:05:08;98618.50;;;-3.76;100.00
56912;BME280;42800;53.928;27.662;2023-11-21T09:07:35;98634.28;;;-3.75;100.00
56912;BME280;42800;53.928;27.662;2023-11-21T09:10:02;98664.06;;;-3.52;100.00
56912;BME280;42800;53.928;27.662;2023-11-21T09:12:28;98687.00;;;-3.70;100.00
56912;BME280;42800;53.928;27.662;2023-11-21T09:14:54;98678.06;;;-3.61;100.00
56912;BME280;42800;53.928;27.662;2023-11-21T09:17:21;98705.16;;;-3.62;100.00
56912;BME280;42800;53.928;27.662;2023-11-21T09:19:47;98696.09;;;-3.66;100.00
56912;BME280;42800;53.928;27.662;2023-11-21T09:22:16;98703.97;;;-3.51;100.00
56912;BME280;42800;53.928;27.662;2023-11-21T09:24:44;98702.81;;;-3.69;100.00
56912;BME280;42800;53.928;27.662;2023-11-21T09:27:10;98691.53;;;-3.18;100.00
56912;BME280;42800;53.928;27.662;2023-11-21T09:29:36;98712.13;;;-3.37;100.00
56912;BME280;42800;53.928;27.662;2023-11-21T09:32:04;98723.34;;;-3.59;100.00
56912;BME280;42800;53.928;27.662;2023-11-21T09:34:32;98708.41;;;-3.65;100.00
56912;BME280;42800;53.928;27.662;2023-11-21T09:36:58;98700.72;;;-3.48;100.00
56912;BME280;42800;53.928;27.662;2023-11-21T09:39:25;98684.19;;;-3.55;100.00
56912;BME280;42800;53.928;27.662;2023-11-21T09:41:55;98693.78;;;-3.25;100.00
56912;BME280;42800;53.928;27.662;2023-11-21T09:44:29;98732.13;;;-3.53;100.00
56912;BME280;42800;53.928;27.662;2023-11-21T09:46:59;98724.28;;;-3.45;100.00
56912;BME280;42800;53.928;27.662;2023-11-21T09:49:26;98734.44;;;-3.42;100.00
56912;BME280;42800;53.928;27.662;2023-11-21T09:51:55;98759.56;;;-3.38;100.00
56912;BME280;42800;53.928;27.662;2023-11-21T09:54:22;98750.09;;;-3.30;100.00
56912;BME280;42800;53.928;27.662;2023-11-21T09:56:49;98762.94;;;-3.27;100.00
56912;BME280;42800;53.928;27.662;2023-11-21T09:59:16;98769.94;;;-3.26;100.00
56912;BME280;42800;53.928;27.662;2023-11-21T10:01:43;98781.22;;;-3.29;100.00
56912;BME280;42800;53.928;27.662;2023-11-21T10:04:09;98779.41;;;-3.10;100.00
56912;BME280;42800;53.928;27.662;2023-11-21T10:06:38;98770.91;;;-2.93;100.00
56912;BME280;42800;53.928;27.662;2023-11-21T10:09:07;98769.38;;;-2.99;100.00
56912;BME280;42800;53.928;27.662;2023-11-21T10:11:39;98771.81;;;-3.02;100.00
56912;BME280;42800;53.928;27.662;2023-11-21T10:14:08;98779.03;;;-3.27;100.00
56912;BME280;42800;53.928;27.662;2023-11-21T10:16:38;98779.19;;;-3.13;100.00
56912;BME280;42800;53.928;27.662;2023-11-21T10:19:05;98758.34;;;-3.50;100.00
56912;BME280;42800;53.928;27.662;2023-11-21T10:21:32;98743.88;;;-3.79;100.00
56912;BME280;42800;53.928;27.662;2023-11-21T10:23:59;98737.41;;;-3.72;100.00
56912;BME280;42800;53.928;27.662;2023-11-21T10:26:26;98725.59;;;-3.18;100.00
56912;BME280;42800;53.928;27.662;2023-11-21T10:28:57;98746.28;;;-3.24;100.00
56912;BME280;42800;53.928;27.662;2023-11-21T10:31:25;98753.63;;;-3.59;100.00
56912;BME280;42800;53.928;27.662;2023-11-21T10:33:53;98733.66;;;-3.18;100.00
56912;BME280;42800;53.928;27.662;2023-11-21T10:36:26;98742.78;;;-3.19;100.00
56912;BME280;42800;53.928;27.662;2023-11-21T10:38:52;98761.94;;;-3.07;100.00
56912;BME280;42800;53.928;27.662;2023-11-21T10:41:19;98759.63;;;-3.43;100.00
56912;BME280;42800;53.928;27.662;2023-11-21T10:43:45;98755.56;;;-3.40;100.00
56912;BME280;42800;53.928;27.662;2023-11-21T10:46:13;98758.88;;;-3.48;100.00
56912;BME280;42800;53.928;27.662;2023-11-21T10:48:41;98761.78;;;-3.16;100.00
56912;BME280;42800;53.928;27.662;2023-11-21T10:51:09;98766.59;;;-3.42;100.00
56912;BME280;42800;53.928;27.662;2023-11-21T10:53:38;98763.00;;;-3.32;100.00
56912;BME280;42800;53.928;27.662;2023-11-21T10:56:06;98769.28;;;-3.42;100.00
56912;BME280;42800;53.928;27.662;2023-11-21T10:58:35;98751.34;;;-3.75;100.00
56912;BME280;42800;53.928;27.662;2023-11-21T11:01:05;98747.53;;;-4.04;100.00
56912;BME280;42800;53.928;27.662;2023-11-21T11:03:32;98726.03;;;-3.59;100.00
56912;BME280;42800;53.928;27.662;2023-11-21T11:06:02;98732.50;;;-3.65;100.00
56912;BME280;42800;53.928;27.662;2023-11-21T11:08:30;98719.56;;;-3.58;100.00
56912;BME280;42800;53.928;27.662;2023-11-21T11:10:57;98736.13;;;-3.51;100.00
56912;BME280;42800;53.928;27.662;2023-11-21T11:13:24;98730.75;;;-3.80;100.00
56912;BME280;42800;53.928;27.662;2023-11-21T11:15:51;98720.75;;;-3.69;100.00
56912;BME280;42800;53.928;27.662;2023-11-21T11:18:25;98710.44;;;-3.28;100.00
56912;BME280;42800;53.928;27.662;2023-11-21T11:20:52;98723.34;;;-3.93;100.00
56912;BME280;42800;53.928;27.662;2023-11-21T11:23:35;98714.34;;;-3.44;100.00
56912;BME280;42800;53.928;27.662;2023-11-21T11:26:20;98703.41;;;-3.48;100.00
56912;BME280;42800;53.928;27.662;2023-11-21T11:28:59;98710.34;;;-3.47;100.00
56912;BME280;42800;53.928;27.662;2023-11-21T11:31:37;98716.59;;;-3.27;100.00
56912;BME280;42800;53.928;27.662;2023-11-21T11:34:17;98720.81;;;-3.21;100.00
56912;BME280;42800;53.928;27.662;2023-11-21T11:36:49;98735.41;;;-3.09;100.00
56912;BME280;42800;53.928;27.662;2023-11-21T11:39:28;98749.81;;;-2.99;100.00
56912;BME280;42800;53.928;27.662;2023-11-21T11:41:56;98748.59;;;-3.12;100.00
56912;BME280;42800;53.928;27.662;2023-11-21T11:44:48;98758.63;;;-3.23;100.00
56912;BME280;42800;53.928;27.662;2023-11-21T11:47:20;98753.41;;;-3.38;100.00
56912;BME280;42800;53.928;27.662;2023-11-21T11:49:57;98748.03;;;-3.33;100.00
56912;BME280;42800;53.928;27.662;2023-11-21T11:52:37;98759.41;;;-3.46;100.00
56912;BME280;42800;53.928;27.662;2023-11-21T11:55:08;98766.69;;;-3.52;100.00
56912;BME280;42800;53.928;27.662;2023-11-21T11:57:36;98743.31;;;-3.46;100.00
56912;BME280;42800;53.928;27.662;2023-11-21T12:00:17;98762.22;;;-3.33;100.00
56912;BME280;42800;53.928;27.662;2023-11-21T12:02:47;98760.38;;;-3.37;100.00
56912;BME280;42800;53.928;27.662;2023-11-21T12:05:14;98754.28;;;-3.43;100.00
56912;BME280;42800;53.928;27.662;2023-11-21T12:07:42;98764.38;;;-3.35;100.00
56912;BME280;42800;53.928;27.662;2023-11-21T12:10:13;98777.78;;;-3.35;100.00
56912;BME280;42800;53.928;27.662;2023-11-21T12:12:44;98782.34;;;-3.35;100.00
56912;BME280;42800;53.928;27.662;2023-11-21T12:15:12;98781.22;;;-3.05;100.00
56912;BME280;42800;53.928;27.662;2023-11-21T12:17:38;98798.19;;;-2.86;100.00
56912;BME280;42800;53.928;27.662;2023-11-21T12:20:06;98821.53;;;-2.86;100.00
56912;BME280;42800;53.928;27.662;2023-11-21T12:22:41;98822.16;;;-2.94;100.00
56912;BME280;42800;53.928;27.662;2023-11-21T12:25:08;98845.78;;;-3.25;100.00
56912;BME280;42800;53.928;27.662;2023-11-21T12:27:35;98832.84;;;-2.89;100.00
56912;BME280;42800;53.928;27.662;2023-11-21T12:30:01;98861.00;;;-2.63;100.00
56912;BME280;42800;53.928;27.662;2023-11-21T12:32:28;98865.25;;;-2.86;100.00
56912;BME280;42800;53.928;27.662;2023-11-21T12:34:54;98865.50;;;-3.11;100.00
56912;BME280;42800;53.928;27.662;2023-11-21T12:37:20;98889.28;;;-2.99;100.00
56912;BME280;42800;53.928;27.662;2023-11-21T12:39:47;98906.84;;;-3.17;100.00
56912;BME280;42800;53.928;27.662;2023-11-21T12:42:15;98912.81;;;-3.65;100.00